sensor_id;sensor_type;location;lat;lon;timestamp;P1;durP1;ratioP1;P2;durP2;ratioP2
17818;SDS011;9034;50.284;19.310;2023-02-20T00:00:47;28.88;;;14.77;;
17818;SDS011;9034;50.284;19.310;2023-02-20T00:01:51;25.40;;;13.30;;
17818;SDS011;9034;50.284;19.310;2023-02-20T00:02:55;23.38;;;10.93;;
17818;SDS011;9034;50.284;19.310;2023-02-20T00:03:58;21.45;;;12.07;;
17818;SDS011;9034;50.284;19.310;2023-02-20T00:05:01;28.30;;;13.10;;
17818;SDS011;9034;50.284;19.310;2023-02-20T00:06:04;21.73;;;12.70;;
17818;SDS011;9034;50.284;19.310;2023-02-20T00:07:06;24.75;;;12.77;;
17818;SDS011;9034;50.284;19.310;2023-02-20T00:08:10;21.95;;;12.32;;
17818;SDS011;9034;50.284;19.310;2023-02-20T00:09:12;20.90;;;12.38;;
17818;SDS011;9034;50.284;19.310;2023-02-20T00:10:17;24.73;;;12.13;;
17818;SDS011;9034;50.284;19.310;2023-02-20T00:11:19;25.10;;;11.75;;
17818;SDS011;9034;50.284;19.310;2023-02-20T00:12:23;23.40;;;11.95;;
17818;SDS011;9034;50.284;19.310;2023-02-20T00:13:25;23.23;;;12.48;;
17818;SDS011;9034;50.284;19.310;2023-02-20T00:14:28;19.25;;;11.68;;
17818;SDS011;9034;50.284;19.310;2023-02-20T00:15:31;20.13;;;10.48;;
17818;SDS011;9034;50.284;19.310;2023-02-20T00:16:34;21.60;;;11.75;;
17818;SDS011;9034;50.284;19.310;2023-02-20T00:17:37;20.40;;;10.98;;
17818;SDS011;9034;50.284;19.310;2023-02-20T00:18:40;16.27;;;11.25;;
17818;SDS011;9034;50.284;19.310;2023-02-20T00:19:42;19.80;;;11.57;;
17818;SDS011;9034;50.284;19.310;2023-02-20T00:20:47;18.25;;;10.63;;
17818;SDS011;9034;50.284;19.310;2023-02-20T00:21:49;19.45;;;10.38;;
17818;SDS011;9034;50.284;19.310;2023-02-20T00:22:53;20.50;;;11.93;;
17818;SDS011;9034;50.284;19.310;2023-02-20T00:23:56;18.45;;;10.77;;
17818;SDS011;9034;50.284;19.310;2023-02-20T00:24:59;18.75;;;10.82;;
17818;SDS011;9034;50.284;19.310;2023-02-20T00:26:02;21.67;;;10.90;;
17818;SDS011;9034;50.284;19.310;2023-02-20T00:27:06;18.70;;;10.65;;
17818;SDS011;9034;50.284;19.310;2023-02-20T00:28:08;19.52;;;9.93;;
17818;SDS011;9034;50.284;19.310;2023-02-20T00:29:13;20.58;;;11.90;;
17818;SDS011;9034;50.284;19.310;2023-02-20T00:30:17;23.55;;;12.77;;
17818;SDS011;9034;50.284;19.310;2023-02-20T00:31:22;28.67;;;12.60;;
17818;SDS011;9034;50.284;19.310;2023-02-20T00:32:24;26.35;;;11.57;;
17818;SDS011;9034;50.284;19.310;2023-02-20T00:33:27;22.52;;;11.95;;
17818;SDS011;9034;50.284;19.310;2023-02-20T00:34:31;21.10;;;10.45;;
17818;SDS011;9034;50.284;19.310;2023-02-20T00:35:34;19.77;;;10.55;;
17818;SDS011;9034;50.284;19.310;2023-02-20T00:36:38;17.17;;;9.73;;
17818;SDS011;9034;50.284;19.310;2023-02-20T00:37:42;20.10;;;10.88;;
17818;SDS011;9034;50.284;19.310;2023-02-20T00:38:45;17.40;;;9.32;;
17818;SDS011;9034;50.284;19.310;2023-02-20T00:39:48;20.20;;;9.45;;
17818;SDS011;9034;50.284;19.310;2023-02-20T00:40:50;16.85;;;9.85;;
17818;SDS011;9034;50.284;19.310;2023-02-20T00:41:55;19.02;;;9.48;;
17818;SDS011;9034;50.284;19.310;2023-02-20T00:42:58;13.32;;;8.73;;
17818;SDS011;9034;50.284;19.310;2023-02-20T00:44:01;21.70;;;9.43;;
17818;SDS011;9034;50.284;19.310;2023-02-20T00:45:03;14.73;;;8.38;;
17818;SDS011;9034;50.284;19.310;2023-02-20T00:46:09;17.23;;;9.00;;
17818;SDS011;9034;50.284;19.310;2023-02-20T00:47:13;18.15;;;9.57;;
17818;SDS011;9034;50.284;19.310;2023-02-20T00:48:16;20.65;;;10.20;;
17818;SDS011;9034;50.284;19.310;2023-02-20T00:49:19;16.85;;;9.57;;
17818;SDS011;9034;50.284;19.310;2023-02-20T00:50:22;16.33;;;9.05;;
17818;SDS011;9034;50.284;19.310;2023-02-20T00:51:25;17.30;;;9.73;;
17818;SDS011;9034;50.284;19.310;2023-02-20T00:52:28;16.10;;;8.88;;
17818;SDS011;9034;50.284;19.310;2023-02-20T00:53:30;16.30;;;8.43;;
17818;SDS011;9034;50.284;19.310;2023-02-20T00:54:34;16.83;;;9.32;;
17818;SDS011;9034;50.284;19.310;2023-02-20T00:55:36;14.68;;;8.63;;
17818;SDS011;9034;50.284;19.310;2023-02-20T00:56:39;14.00;;;8.45;;
17818;SDS011;9034;50.284;19.310;2023-02-20T00:57:43;19.17;;;10.95;;
17818;SDS011;9034;50.284;19.310;2023-02-20T00:58:48;14.15;;;9.63;;
17818;SDS011;9034;50.284;19.310;2023-02-20T00:59:50;15.95;;;8.90;;
17818;SDS011;9034;50.284;19.310;2023-02-20T01:00:53;14.85;;;8.48;;
17818;SDS011;9034;50.284;19.310;2023-02-20T01:01:56;16.95;;;9.57;;
17818;SDS011;9034;50.284;19.310;2023-02-20T01:02:59;18.88;;;9.73;;
17818;SDS011;9034;50.284;19.310;2023-02-20T01:04:02;15.27;;;9.15;;
17818;SDS011;9034;50.284;19.310;2023-02-20T01:05:05;20.73;;;10.18;;
17818;SDS011;9034;50.284;19.310;2023-02-20T01:06:09;14.35;;;9.23;;
17818;SDS011;9034;50.284;19.310;2023-02-20T01:07:13;18.95;;;10.85;;
17818;SDS011;9034;50.284;19.310;2023-02-20T01:08:15;17.92;;;11.15;;
17818;SDS011;9034;50.284;19.310;2023-02-20T01:09:18;15.73;;;9.35;;
17818;SDS011;9034;50.284;19.310;2023-02-20T01:10:22;17.55;;;9.82;;
17818;SDS011;9034;50.284;19.310;2023-02-20T01:11:25;18.95;;;10.00;;
17818;SDS011;9034;50.284;19.310;2023-02-20T01:12:27;18.20;;;9.35;;
17818;SDS011;9034;50.284;19.310;2023-02-20T01:13:31;17.40;;;9.73;;
17818;SDS011;9034;50.284;19.310;2023-02-20T01:14:35;17.73;;;8.90;;
17818;SDS011;9034;50.284;19.310;2023-02-20T01:15:38;17.20;;;9.43;;
17818;SDS011;9034;50.284;19.310;2023-02-20T01:16:43;18.70;;;9.50;;
17818;SDS011;9034;50.284;19.310;2023-02-20T01:17:47;18.48;;;9.40;;
17818;SDS011;9034;50.284;19.310;2023-02-20T01:18:51;19.48;;;9.18;;
17818;SDS011;9034;50.284;19.310;2023-02-20T01:19:54;17.55;;;9.77;;
17818;SDS011;9034;50.284;19.310;2023-02-20T01:20:57;21.42;;;10.55;;
17818;SDS011;9034;50.284;19.310;2023-02-20T01:22:00;23.20;;;10.93;;
17818;SDS011;9034;50.284;19.310;2023-02-20T01:23:06;19.38;;;10.60;;
17818;SDS011;9034;50.284;19.310;2023-02-20T01:24:10;17.58;;;11.10;;
17818;SDS011;9034;50.284;19.310;2023-02-20T01:25:13;21.42;;;12.27;;
17818;SDS011;9034;50.284;19.310;2023-02-20T01:26:18;17.17;;;10.60;;
17818;SDS011;9034;50.284;19.310;2023-02-20T01:27:20;17.08;;;10.48;;
17818;SDS011;9034;50.284;19.310;2023-02-20T01:28:23;21.55;;;10.90;;
17818;SDS011;9034;50.284;19.310;2023-02-20T01:29:26;21.10;;;11.80;;
17818;SDS011;9034;50.284;19.310;2023-02-20T01:30:32;16.95;;;11.48;;
17818;SDS011;9034;50.284;19.310;2023-02-20T01:31:36;19.50;;;12.15;;
17818;SDS011;9034;50.284;19.310;2023-02-20T01:32:42;20.48;;;11.43;;
17818;SDS011;9034;50.284;19.310;2023-02-20T01:33:44;20.05;;;11.57;;
17818;SDS011;9034;50.284;19.310;2023-02-20T01:34:47;20.85;;;12.43;;
17818;SDS011;9034;50.284;19.310;2023-02-20T01:35:50;22.02;;;12.30;;
17818;SDS011;9034;50.284;19.310;2023-02-20T01:36:55;23.33;;;12.75;;
17818;SDS011;9034;50.284;19.310;2023-02-20T01:37:59;19.38;;;11.63;;
17818;SDS011;9034;50.284;19.310;2023-02-20T01:39:06;19.45;;;11.93;;
17818;SDS011;9034;50.284;19.310;2023-02-20T01:40:12;23.38;;;11.50;;
17818;SDS011;9034;50.284;19.310;2023-02-20T01:41:16;20.83;;;11.43;;
17818;SDS011;9034;50.284;19.310;2023-02-20T01:42:20;18.80;;;10.85;;
17818;SDS011;9034;50.284;19.310;2023-02-20T01:43:28;16.70;;;9.70;;
17818;SDS011;9034;50.284;19.310;2023-02-20T01:44:34;19.13;;;10.38;;
17818;SDS011;9034;50.284;19.310;2023-02-20T01:45:37;18.27;;;10.55;;
17818;SDS011;9034;50.284;19.310;2023-02-20T01:46:51;15.35;;;9.88;;
17818;SDS011;9034;50.284;19.310;2023-02-20T01:47:55;15.93;;;10.40;;
17818;SDS011;9034;50.284;19.310;2023-02-20T01:48:59;18.05;;;10.43;;
17818;SDS011;9034;50.284;19.310;2023-02-20T01:50:04;17.45;;;10.70;;
17818;SDS011;9034;50.284;19.310;2023-02-20T01:51:10;21.42;;;11.23;;
17818;SDS011;9034;50.284;19.310;2023-02-20T01:52:13;17.70;;;10.27;;
17818;SDS011;9034;50.284;19.310;2023-02-20T01:53:19;17.20;;;10.57;;
17818;SDS011;9034;50.284;19.310;2023-02-20T01:54:22;16.02;;;10.43;;
17818;SDS011;9034;50.284;19.310;2023-02-20T01:55:28;20.33;;;11.38;;
17818;SDS011;9034;50.284;19.310;2023-02-20T01:56:31;21.42;;;12.07;;
17818;SDS011;9034;50.284;19.310;2023-02-20T01:57:35;19.42;;;10.68;;
17818;SDS011;9034;50.284;19.310;2023-02-20T01:58:40;20.98;;;11.45;;
17818;SDS011;9034;50.284;19.310;2023-02-20T01:59:47;23.45;;;11.88;;
17818;SDS011;9034;50.284;19.310;2023-02-20T02:00:50;22.13;;;11.65;;
17818;SDS011;9034;50.284;19.310;2023-02-20T02:01:54;24.75;;;11.63;;
17818;SDS011;9034;50.284;19.310;2023-02-20T02:02:57;20.88;;;11.30;;
17818;SDS011;9034;50.284;19.310;2023-02-20T02:04:03;20.67;;;10.77;;
17818;SDS011;9034;50.284;19.310;2023-02-20T02:05:08;22.83;;;11.48;;
17818;SDS011;9034;50.284;19.310;2023-02-20T02:06:12;24.65;;;12.15;;
17818;SDS011;9034;50.284;19.310;2023-02-20T02:07:15;19.13;;;11.00;;
17818;SDS011;9034;50.284;19.310;2023-02-20T02:08:20;22.75;;;10.30;;
17818;SDS011;9034;50.284;19.310;2023-02-20T02:09:26;18.25;;;11.18;;
17818;SDS011;9034;50.284;19.310;2023-02-20T02:10:36;20.35;;;10.77;;
17818;SDS011;9034;50.284;19.310;2023-02-20T02:11:40;20.17;;;10.48;;
17818;SDS011;9034;50.284;19.310;2023-02-20T02:12:44;17.08;;;9.70;;
17818;SDS011;9034;50.284;19.310;2023-02-20T02:13:47;21.85;;;11.55;;
17818;SDS011;9034;50.284;19.310;2023-02-20T02:14:52;21.75;;;11.85;;
17818;SDS011;9034;50.284;19.310;2023-02-20T02:15:59;18.30;;;11.05;;
17818;SDS011;9034;50.284;19.310;2023-02-20T02:17:28;23.42;;;11.73;;
17818;SDS011;9034;50.284;19.310;2023-02-20T02:18:41;23.33;;;11.18;;
17818;SDS011;9034;50.284;19.310;2023-02-20T02:21:56;24.63;;;11.23;;
17818;SDS011;9034;50.284;19.310;2023-02-20T02:25:15;22.08;;;10.57;;
17818;SDS011;9034;50.284;19.310;2023-02-20T02:26:46;22.42;;;11.27;;
17818;SDS011;9034;50.284;19.310;2023-02-20T02:28:25;23.73;;;11.52;;
17818;SDS011;9034;50.284;19.310;2023-02-20T02:30:05;23.08;;;12.50;;
17818;SDS011;9034;50.284;19.310;2023-02-20T02:33:06;22.95;;;11.82;;
17818;SDS011;9034;50.284;19.310;2023-02-20T02:34:51;24.90;;;12.15;;
17818;SDS011;9034;50.284;19.310;2023-02-20T02:36:30;21.20;;;11.77;;
17818;SDS011;9034;50.284;19.310;2023-02-20T02:37:40;23.38;;;11.77;;
17818;SDS011;9034;50.284;19.310;2023-02-20T02:38:50;19.45;;;11.32;;
17818;SDS011;9034;50.284;19.310;2023-02-20T02:39:58;24.42;;;11.60;;
17818;SDS011;9034;50.284;19.310;2023-02-20T02:41:06;17.05;;;10.88;;
17818;SDS011;9034;50.284;19.310;2023-02-20T02:42:15;17.27;;;11.05;;
17818;SDS011;9034;50.284;19.310;2023-02-20T02:43:26;20.15;;;11.77;;
17818;SDS011;9034;50.284;19.310;2023-02-20T02:44:31;16.75;;;11.35;;
17818;SDS011;9034;50.284;19.310;2023-02-20T02:45:37;22.63;;;11.77;;
17818;SDS011;9034;50.284;19.310;2023-02-20T02:46:46;18.00;;;11.25;;
17818;SDS011;9034;50.284;19.310;2023-02-20T02:47:54;24.50;;;12.15;;
17818;SDS011;9034;50.284;19.310;2023-02-20T02:48:58;21.35;;;13.32;;
17818;SDS011;9034;50.284;19.310;2023-02-20T02:50:07;30.33;;;15.25;;
17818;SDS011;9034;50.284;19.310;2023-02-20T02:51:14;24.63;;;13.88;;
17818;SDS011;9034;50.284;19.310;2023-02-20T02:52:20;29.55;;;14.23;;
17818;SDS011;9034;50.284;19.310;2023-02-20T02:53:39;24.42;;;13.85;;
17818;SDS011;9034;50.284;19.310;2023-02-20T02:54:42;20.83;;;11.52;;
17818;SDS011;9034;50.284;19.310;2023-02-20T02:55:44;20.95;;;12.50;;
17818;SDS011;9034;50.284;19.310;2023-02-20T02:56:48;20.15;;;12.60;;
17818;SDS011;9034;50.284;19.310;2023-02-20T02:57:51;22.85;;;12.63;;
17818;SDS011;9034;50.284;19.310;2023-02-20T02:58:56;18.02;;;13.05;;
17818;SDS011;9034;50.284;19.310;2023-02-20T02:59:59;19.27;;;11.93;;
17818;SDS011;9034;50.284;19.310;2023-02-20T03:01:03;21.75;;;12.23;;
17818;SDS011;9034;50.284;19.310;2023-02-20T03:02:08;23.00;;;12.60;;
17818;SDS011;9034;50.284;19.310;2023-02-20T03:03:16;19.67;;;11.82;;
17818;SDS011;9034;50.284;19.310;2023-02-20T03:04:22;19.77;;;11.50;;
17818;SDS011;9034;50.284;19.310;2023-02-20T03:05:26;21.50;;;12.50;;
17818;SDS011;9034;50.284;19.310;2023-02-20T03:06:41;19.38;;;12.13;;
17818;SDS011;9034;50.284;19.310;2023-02-20T03:07:48;18.58;;;11.52;;
17818;SDS011;9034;50.284;19.310;2023-02-20T03:08:53;21.25;;;12.52;;
17818;SDS011;9034;50.284;19.310;2023-02-20T03:09:59;24.63;;;12.65;;
17818;SDS011;9034;50.284;19.310;2023-02-20T03:11:11;20.00;;;11.63;;
17818;SDS011;9034;50.284;19.310;2023-02-20T03:12:16;18.25;;;11.07;;
17818;SDS011;9034;50.284;19.310;2023-02-20T03:13:22;21.27;;;13.27;;
17818;SDS011;9034;50.284;19.310;2023-02-20T03:14:45;18.48;;;11.80;;
17818;SDS011;9034;50.284;19.310;2023-02-20T03:16:10;22.48;;;11.43;;
17818;SDS011;9034;50.284;19.310;2023-02-20T03:17:16;21.15;;;12.30;;
17818;SDS011;9034;50.284;19.310;2023-02-20T03:18:28;24.20;;;12.63;;
17818;SDS011;9034;50.284;19.310;2023-02-20T03:19:36;18.52;;;12.60;;
17818;SDS011;9034;50.284;19.310;2023-02-20T03:20:43;22.05;;;13.25;;
17818;SDS011;9034;50.284;19.310;2023-02-20T03:21:47;18.17;;;12.13;;
17818;SDS011;9034;50.284;19.310;2023-02-20T03:22:52;19.17;;;12.82;;
17818;SDS011;9034;50.284;19.310;2023-02-20T03:23:58;23.27;;;12.60;;
17818;SDS011;9034;50.284;19.310;2023-02-20T03:25:03;20.35;;;12.65;;
17818;SDS011;9034;50.284;19.310;2023-02-20T03:26:12;21.83;;;11.77;;
17818;SDS011;9034;50.284;19.310;2023-02-20T03:27:22;17.60;;;12.38;;
17818;SDS011;9034;50.284;19.310;2023-02-20T03:28:30;19.27;;;12.93;;
17818;SDS011;9034;50.284;19.310;2023-02-20T03:29:35;20.27;;;12.75;;
17818;SDS011;9034;50.284;19.310;2023-02-20T03:30:40;22.13;;;13.57;;
17818;SDS011;9034;50.284;19.310;2023-02-20T03:31:48;27.13;;;15.48;;
17818;SDS011;9034;50.284;19.310;2023-02-20T03:33:12;26.60;;;14.23;;
17818;SDS011;9034;50.284;19.310;2023-02-20T03:34:36;23.60;;;13.90;;
17818;SDS011;9034;50.284;19.310;2023-02-20T03:35:58;25.48;;;14.65;;
17818;SDS011;9034;50.284;19.310;2023-02-20T03:37:21;24.67;;;13.07;;
17818;SDS011;9034;50.284;19.310;2023-02-20T03:38:48;23.73;;;13.80;;
17818;SDS011;9034;50.284;19.310;2023-02-20T03:40:11;20.90;;;12.13;;
17818;SDS011;9034;50.284;19.310;2023-02-20T03:41:34;20.88;;;12.20;;
17818;SDS011;9034;50.284;19.310;2023-02-20T03:42:58;19.88;;;12.18;;
17818;SDS011;9034;50.284;19.310;2023-02-20T03:44:21;21.50;;;12.07;;
17818;SDS011;9034;50.284;19.310;2023-02-20T03:45:28;21.25;;;11.77;;
17818;SDS011;9034;50.284;19.310;2023-02-20T03:46:32;18.05;;;12.18;;
17818;SDS011;9034;50.284;19.310;2023-02-20T03:47:38;21.90;;;11.95;;
17818;SDS011;9034;50.284;19.310;2023-02-20T03:48:46;20.42;;;12.38;;
17818;SDS011;9034;50.284;19.310;2023-02-20T03:49:51;17.20;;;11.57;;
17818;SDS011;9034;50.284;19.310;2023-02-20T03:50:56;18.95;;;12.10;;
17818;SDS011;9034;50.284;19.310;2023-02-20T03:52:03;30.05;;;15.82;;
17818;SDS011;9034;50.284;19.310;2023-02-20T03:53:10;26.75;;;14.50;;
17818;SDS011;9034;50.284;19.310;2023-02-20T03:54:15;31.77;;;16.50;;
17818;SDS011;9034;50.284;19.310;2023-02-20T03:55:20;24.00;;;13.50;;
17818;SDS011;9034;50.284;19.310;2023-02-20T03:56:26;28.25;;;15.32;;
17818;SDS011;9034;50.284;19.310;2023-02-20T03:57:33;27.83;;;14.88;;
17818;SDS011;9034;50.284;19.310;2023-02-20T03:58:40;25.15;;;14.68;;
17818;SDS011;9034;50.284;19.310;2023-02-20T03:59:45;22.75;;;11.80;;
17818;SDS011;9034;50.284;19.310;2023-02-20T04:00:51;26.73;;;13.60;;
17818;SDS011;9034;50.284;19.310;2023-02-20T04:01:57;23.70;;;12.70;;
17818;SDS011;9034;50.284;19.310;2023-02-20T04:03:05;19.40;;;11.82;;
17818;SDS011;9034;50.284;19.310;2023-02-20T04:04:17;17.85;;;10.70;;
17818;SDS011;9034;50.284;19.310;2023-02-20T04:05:24;18.92;;;11.55;;
17818;SDS011;9034;50.284;19.310;2023-02-20T04:06:31;17.55;;;10.35;;
17818;SDS011;9034;50.284;19.310;2023-02-20T04:07:36;15.50;;;10.63;;
17818;SDS011;9034;50.284;19.310;2023-02-20T04:08:45;18.83;;;10.50;;
17818;SDS011;9034;50.284;19.310;2023-02-20T04:09:53;16.20;;;11.23;;
17818;SDS011;9034;50.284;19.310;2023-02-20T04:10:58;23.27;;;13.48;;
17818;SDS011;9034;50.284;19.310;2023-02-20T04:12:03;19.80;;;12.65;;
17818;SDS011;9034;50.284;19.310;2023-02-20T04:13:08;17.90;;;12.50;;
17818;SDS011;9034;50.284;19.310;2023-02-20T04:14:12;19.25;;;12.07;;
17818;SDS011;9034;50.284;19.310;2023-02-20T04:15:16;18.67;;;10.90;;
17818;SDS011;9034;50.284;19.310;2023-02-20T04:16:20;20.67;;;11.23;;
17818;SDS011;9034;50.284;19.310;2023-02-20T04:17:26;18.40;;;11.00;;
17818;SDS011;9034;50.284;19.310;2023-02-20T04:18:31;21.08;;;10.68;;
17818;SDS011;9034;50.284;19.310;2023-02-20T04:19:36;22.42;;;11.18;;
17818;SDS011;9034;50.284;19.310;2023-02-20T04:20:40;19.20;;;10.65;;
17818;SDS011;9034;50.284;19.310;2023-02-20T04:21:56;19.25;;;10.68;;
17818;SDS011;9034;50.284;19.310;2023-02-20T04:23:01;15.70;;;9.60;;
17818;SDS011;9034;50.284;19.310;2023-02-20T04:24:08;16.48;;;9.02;;
17818;SDS011;9034;50.284;19.310;2023-02-20T04:25:17;16.98;;;9.07;;
17818;SDS011;9034;50.284;19.310;2023-02-20T04:26:23;14.80;;;8.98;;
17818;SDS011;9034;50.284;19.310;2023-02-20T04:27:26;13.55;;;8.73;;
17818;SDS011;9034;50.284;19.310;2023-02-20T04:28:30;16.30;;;9.23;;
17818;SDS011;9034;50.284;19.310;2023-02-20T04:29:36;15.82;;;8.45;;
17818;SDS011;9034;50.284;19.310;2023-02-20T04:30:38;13.68;;;7.60;;
17818;SDS011;9034;50.284;19.310;2023-02-20T04:31:42;12.82;;;8.35;;
17818;SDS011;9034;50.284;19.310;2023-02-20T04:32:45;16.45;;;9.70;;
17818;SDS011;9034;50.284;19.310;2023-02-20T04:33:48;15.10;;;7.88;;
17818;SDS011;9034;50.284;19.310;2023-02-20T04:34:54;16.90;;;8.18;;
17818;SDS011;9034;50.284;19.310;2023-02-20T04:35:59;14.60;;;7.50;;
17818;SDS011;9034;50.284;19.310;2023-02-20T04:37:04;11.88;;;6.95;;
17818;SDS011;9034;50.284;19.310;2023-02-20T04:38:09;13.88;;;7.10;;
17818;SDS011;9034;50.284;19.310;2023-02-20T04:39:13;13.15;;;8.00;;
17818;SDS011;9034;50.284;19.310;2023-02-20T04:40:18;10.57;;;6.70;;
17818;SDS011;9034;50.284;19.310;2023-02-20T04:41:22;14.00;;;7.63;;
17818;SDS011;9034;50.284;19.310;2023-02-20T04:42:26;16.48;;;8.15;;
17818;SDS011;9034;50.284;19.310;2023-02-20T04:43:30;11.23;;;7.15;;
17818;SDS011;9034;50.284;19.310;2023-02-20T04:44:33;13.73;;;8.00;;
17818;SDS011;9034;50.284;19.310;2023-02-20T04:45:39;13.82;;;8.30;;
17818;SDS011;9034;50.284;19.310;2023-02-20T04:46:43;9.70;;;6.95;;
17818;SDS011;9034;50.284;19.310;2023-02-20T04:47:46;13.52;;;7.43;;
17818;SDS011;9034;50.284;19.310;2023-02-20T04:48:50;13.63;;;7.60;;
17818;SDS011;9034;50.284;19.310;2023-02-20T04:49:53;13.07;;;8.05;;
17818;SDS011;9034;50.284;19.310;2023-02-20T04:50:58;15.77;;;7.72;;
17818;SDS011;9034;50.284;19.310;2023-02-20T04:52:04;18.60;;;8.73;;
17818;SDS011;9034;50.284;19.310;2023-02-20T04:53:08;14.07;;;8.23;;
17818;SDS011;9034;50.284;19.310;2023-02-20T04:54:10;14.95;;;8.38;;
17818;SDS011;9034;50.284;19.310;2023-02-20T04:55:14;15.32;;;8.32;;
17818;SDS011;9034;50.284;19.310;2023-02-20T04:56:18;12.48;;;8.43;;
17818;SDS011;9034;50.284;19.310;2023-02-20T04:57:21;13.55;;;7.70;;
17818;SDS011;9034;50.284;19.310;2023-02-20T04:58:23;17.30;;;8.27;;
17818;SDS011;9034;50.284;19.310;2023-02-20T04:59:39;16.52;;;8.70;;
17818;SDS011;9034;50.284;19.310;2023-02-20T05:00:43;14.98;;;7.60;;
17818;SDS011;9034;50.284;19.310;2023-02-20T05:01:46;15.32;;;9.18;;
17818;SDS011;9034;50.284;19.310;2023-02-20T05:02:50;13.63;;;8.13;;
17818;SDS011;9034;50.284;19.310;2023-02-20T05:03:53;15.15;;;8.93;;
17818;SDS011;9034;50.284;19.310;2023-02-20T05:04:55;19.25;;;8.57;;
17818;SDS011;9034;50.284;19.310;2023-02-20T05:05:59;16.25;;;8.10;;
17818;SDS011;9034;50.284;19.310;2023-02-20T05:07:01;14.93;;;9.02;;
17818;SDS011;9034;50.284;19.310;2023-02-20T05:08:05;17.25;;;10.25;;
17818;SDS011;9034;50.284;19.310;2023-02-20T05:09:26;14.68;;;8.88;;
17818;SDS011;9034;50.284;19.310;2023-02-20T05:10:30;21.05;;;10.20;;
17818;SDS011;9034;50.284;19.310;2023-02-20T05:11:35;17.92;;;9.35;;
17818;SDS011;9034;50.284;19.310;2023-02-20T05:12:39;16.88;;;9.57;;
17818;SDS011;9034;50.284;19.310;2023-02-20T05:13:41;15.23;;;9.52;;
17818;SDS011;9034;50.284;19.310;2023-02-20T05:14:45;17.00;;;9.07;;
17818;SDS011;9034;50.284;19.310;2023-02-20T05:15:47;17.08;;;9.68;;
17818;SDS011;9034;50.284;19.310;2023-02-20T05:16:50;17.40;;;9.63;;
17818;SDS011;9034;50.284;19.310;2023-02-20T05:17:52;16.80;;;9.57;;
17818;SDS011;9034;50.284;19.310;2023-02-20T05:18:55;17.42;;;9.60;;
17818;SDS011;9034;50.284;19.310;2023-02-20T05:19:58;16.60;;;9.18;;
17818;SDS011;9034;50.284;19.310;2023-02-20T05:21:01;20.80;;;11.85;;
17818;SDS011;9034;50.284;19.310;2023-02-20T05:22:21;18.02;;;9.65;;
17818;SDS011;9034;50.284;19.310;2023-02-20T05:23:24;16.92;;;9.70;;
17818;SDS011;9034;50.284;19.310;2023-02-20T05:24:26;16.95;;;10.18;;
17818;SDS011;9034;50.284;19.310;2023-02-20T05:25:30;15.63;;;10.10;;
17818;SDS011;9034;50.284;19.310;2023-02-20T05:26:32;16.77;;;10.70;;
17818;SDS011;9034;50.284;19.310;2023-02-20T05:27:37;16.70;;;9.48;;
17818;SDS011;9034;50.284;19.310;2023-02-20T05:28:40;19.38;;;10.95;;
17818;SDS011;9034;50.284;19.310;2023-02-20T05:29:45;18.08;;;10.50;;
17818;SDS011;9034;50.284;19.310;2023-02-20T05:30:48;18.67;;;10.73;;
17818;SDS011;9034;50.284;19.310;2023-02-20T05:31:50;14.88;;;9.13;;
17818;SDS011;9034;50.284;19.310;2023-02-20T05:32:54;19.35;;;9.85;;
17818;SDS011;9034;50.284;19.310;2023-02-20T05:33:56;13.23;;;8.95;;
17818;SDS011;9034;50.284;19.310;2023-02-20T05:34:59;16.25;;;9.13;;
17818;SDS011;9034;50.284;19.310;2023-02-20T05:36:02;14.55;;;8.43;;
17818;SDS011;9034;50.284;19.310;2023-02-20T05:37:04;13.85;;;7.93;;
17818;SDS011;9034;50.284;19.310;2023-02-20T05:38:07;16.85;;;8.15;;
17818;SDS011;9034;50.284;19.310;2023-02-20T05:39:09;14.00;;;7.40;;
17818;SDS011;9034;50.284;19.310;2023-02-20T05:40:13;11.60;;;7.30;;
17818;SDS011;9034;50.284;19.310;2023-02-20T05:41:15;13.43;;;8.13;;
17818;SDS011;9034;50.284;19.310;2023-02-20T05:42:18;11.32;;;8.18;;
17818;SDS011;9034;50.284;19.310;2023-02-20T05:43:23;12.70;;;7.55;;
17818;SDS011;9034;50.284;19.310;2023-02-20T05:44:26;14.00;;;7.95;;
17818;SDS011;9034;50.284;19.310;2023-02-20T05:45:30;15.00;;;7.75;;
17818;SDS011;9034;50.284;19.310;2023-02-20T05:46:37;13.45;;;7.57;;
17818;SDS011;9034;50.284;19.310;2023-02-20T05:47:41;17.10;;;7.85;;
17818;SDS011;9034;50.284;19.310;2023-02-20T05:48:47;12.50;;;7.55;;
17818;SDS011;9034;50.284;19.310;2023-02-20T05:49:50;11.77;;;7.15;;
17818;SDS011;9034;50.284;19.310;2023-02-20T05:50:52;15.50;;;7.35;;
17818;SDS011;9034;50.284;19.310;2023-02-20T05:51:55;13.57;;;7.60;;
17818;SDS011;9034;50.284;19.310;2023-02-20T05:52:58;12.25;;;8.02;;
17818;SDS011;9034;50.284;19.310;2023-02-20T05:54:02;11.63;;;6.63;;
17818;SDS011;9034;50.284;19.310;2023-02-20T05:55:05;10.90;;;6.95;;
17818;SDS011;9034;50.284;19.310;2023-02-20T05:56:08;13.55;;;6.97;;
17818;SDS011;9034;50.284;19.310;2023-02-20T05:57:10;12.13;;;6.70;;
17818;SDS011;9034;50.284;19.310;2023-02-20T05:58:14;16.00;;;6.72;;
17818;SDS011;9034;50.284;19.310;2023-02-20T05:59:18;15.40;;;7.13;;
17818;SDS011;9034;50.284;19.310;2023-02-20T06:00:22;9.98;;;6.47;;
17818;SDS011;9034;50.284;19.310;2023-02-20T06:01:27;11.90;;;6.80;;
17818;SDS011;9034;50.284;19.310;2023-02-20T06:02:30;18.67;;;7.63;;
17818;SDS011;9034;50.284;19.310;2023-02-20T06:03:34;11.95;;;5.97;;
17818;SDS011;9034;50.284;19.310;2023-02-20T06:04:38;11.15;;;5.78;;
17818;SDS011;9034;50.284;19.310;2023-02-20T06:05:41;11.40;;;5.72;;
17818;SDS011;9034;50.284;19.310;2023-02-20T06:06:43;10.80;;;6.53;;
17818;SDS011;9034;50.284;19.310;2023-02-20T06:07:47;14.90;;;6.57;;
17818;SDS011;9034;50.284;19.310;2023-02-20T06:08:49;18.65;;;6.50;;
17818;SDS011;9034;50.284;19.310;2023-02-20T06:09:52;11.95;;;6.15;;
17818;SDS011;9034;50.284;19.310;2023-02-20T06:10:54;12.88;;;7.25;;
17818;SDS011;9034;50.284;19.310;2023-02-20T06:11:57;13.18;;;6.80;;
17818;SDS011;9034;50.284;19.310;2023-02-20T06:12:59;14.07;;;6.95;;
17818;SDS011;9034;50.284;19.310;2023-02-20T06:14:03;16.63;;;6.75;;
17818;SDS011;9034;50.284;19.310;2023-02-20T06:15:07;13.00;;;6.82;;
17818;SDS011;9034;50.284;19.310;2023-02-20T06:16:11;11.30;;;7.03;;
17818;SDS011;9034;50.284;19.310;2023-02-20T06:17:14;20.00;;;8.25;;
17818;SDS011;9034;50.284;19.310;2023-02-20T06:18:17;12.02;;;7.97;;
17818;SDS011;9034;50.284;19.310;2023-02-20T06:19:20;11.73;;;7.43;;
17818;SDS011;9034;50.284;19.310;2023-02-20T06:20:24;11.95;;;7.30;;
17818;SDS011;9034;50.284;19.310;2023-02-20T06:21:26;13.13;;;7.97;;
17818;SDS011;9034;50.284;19.310;2023-02-20T06:22:29;11.27;;;7.38;;
17818;SDS011;9034;50.284;19.310;2023-02-20T06:23:32;15.73;;;7.97;;
17818;SDS011;9034;50.284;19.310;2023-02-20T06:24:35;20.20;;;8.70;;
17818;SDS011;9034;50.284;19.310;2023-02-20T06:25:38;13.38;;;8.07;;
17818;SDS011;9034;50.284;19.310;2023-02-20T06:26:40;16.98;;;8.27;;
17818;SDS011;9034;50.284;19.310;2023-02-20T06:27:44;13.27;;;7.72;;
17818;SDS011;9034;50.284;19.310;2023-02-20T06:28:47;16.90;;;8.82;;
17818;SDS011;9034;50.284;19.310;2023-02-20T06:29:51;15.55;;;8.70;;
17818;SDS011;9034;50.284;19.310;2023-02-20T06:30:56;13.55;;;8.02;;
17818;SDS011;9034;50.284;19.310;2023-02-20T06:31:58;12.80;;;9.23;;
17818;SDS011;9034;50.284;19.310;2023-02-20T06:33:01;16.83;;;9.10;;
17818;SDS011;9034;50.284;19.310;2023-02-20T06:34:03;15.48;;;9.15;;